Time;durP1;ratioP1;P1;durP2;ratioP2;P2;SDS_P1;SDS_P2;PMS_P1;PMS_P2;Temp;Humidity;BMP_temperature;BMP_pressure;BME280_temperature;BME280_humidity;BME280_pressure;Samples;Min_cycle;Max_cycle;Signal;HPM_P1;HPM_P2
2022/05/23 00:01:18;;;;;;;7.72;3.40;;;;;;;;;;5116567;27;20199;-76
2022/05/23 00:03:44;;;;;;;9.35;3.80;;;;;;;;;;5120531;27;20215;-73
2022/05/23 00:06:10;;;;;;;8.45;3.40;;;;;;;;;;5115194;27;20191;-75
2022/05/23 00:08:36;;;;;;;6.13;3.20;;;;;;;;;;5109139;27;20604;-74
2022/05/23 00:11:02;;;;;;;10.48;3.30;;;;;;;;;;5111311;27;20234;-76
2022/05/23 00:13:28;;;;;;;7.50;3.50;;;;;;;;;;5117859;27;20187;-72
2022/05/23 00:15:54;;;;;;;8.48;3.33;;;;;;;;;;5113819;27;20192;-75
2022/05/23 00:18:20;;;;;;;8.10;3.33;;;;;;;;;;5116885;27;20238;-75
2022/05/23 00:20:46;;;;;;;5.95;3.20;;;;;;;;;;5114094;27;20191;-74
2022/05/23 00:23:12;;;;;;;7.95;3.10;;;;;;;;;;5119568;27;20200;-76
2022/05/23 00:25:39;;;;;;;9.05;3.80;;;;;;;;;;5112174;27;20640;-74
2022/05/23 00:28:05;;;;;;;8.07;3.45;;;;;;;;;;5112496;27;20577;-73
2022/05/23 00:30:31;;;;;;;7.75;3.35;;;;;;;;;;5110462;27;20197;-77
2022/05/23 00:35:45;;;;;;;6.20;2.72;;;;;;;;;;5116039;27;20185;-75
2022/05/23 00:38:11;;;;;;;8.15;3.20;;;;;;;;;;5116740;27;20193;-76
2022/05/23 00:43:42;;;;;;;9.43;3.35;;;;;;;;;;5086824;28;20204;-73
2022/05/23 00:46:09;;;;;;;12.43;3.30;;;;;;;;;;5114649;27;20188;-73
2022/05/23 00:48:35;;;;;;;7.05;3.38;;;;;;;;;;5117471;27;20211;-73
2022/05/23 00:51:03;;;;;;;9.85;3.45;;;;;;;;;;5107772;27;20193;-74
2022/05/23 00:53:29;;;;;;;9.43;3.17;;;;;;;;;;5117379;27;20196;-71
2022/05/23 00:55:56;;;;;;;6.40;3.30;;;;;;;;;;5110607;27;20181;-74
2022/05/23 00:58:25;;;;;;;6.82;3.25;;;;;;;;;;5112479;27;20247;-75
2022/05/23 01:00:52;;;;;;;5.78;2.95;;;;;;;;;;5113586;27;20246;-74
2022/05/23 01:03:19;;;;;;;7.20;2.95;;;;;;;;;;5126497;27;20207;-76
2022/05/23 01:05:46;;;;;;;10.95;3.55;;;;;;;;;;5114389;27;20200;-76
2022/05/23 01:08:15;;;;;;;7.38;3.22;;;;;;;;;;5126020;27;20173;-74
2022/05/23 01:10:43;;;;;;;7.57;3.03;;;;;;;;;;5101113;28;20181;-75
2022/05/23 01:13:11;;;;;;;8.95;3.35;;;;;;;;;;5105936;27;20212;-75
2022/05/23 01:15:37;;;;;;;8.02;3.03;;;;;;;;;;5109206;28;20182;-73
2022/05/23 01:18:04;;;;;;;10.82;3.08;;;;;;;;;;5124414;27;20184;-75
2022/05/23 01:20:30;;;;;;;5.10;2.72;;;;;;;;;;5116270;27;20255;-74
2022/05/23 01:22:56;;;;;;;10.60;3.35;;;;;;;;;;5122170;27;20254;-75
2022/05/23 01:25:32;;;;;;;8.45;3.25;;;;;;;;;;5108191;27;20863;-73
2022/05/23 01:28:00;;;;;;;7.15;3.55;;;;;;;;;;5115450;27;20529;-72
2022/05/23 01:30:26;;;;;;;9.35;3.45;;;;;;;;;;5115184;27;20177;-75
2022/05/23 01:33:07;;;;;;;7.93;3.60;;;;;;;;;;5116377;27;20272;-77
2022/05/23 01:35:33;;;;;;;10.02;3.05;;;;;;;;;;5108725;27;20193;-72
2022/05/23 01:37:59;;;;;;;6.55;3.30;;;;;;;;;;5112657;27;20713;-73
2022/05/23 01:40:56;;;;;;;8.70;3.53;;;;;;;;;;5097142;27;20281;-75
2022/05/23 01:43:25;;;;;;;10.57;3.67;;;;;;;;;;5115540;27;20591;-75
2022/05/23 01:46:11;;;;;;;7.22;3.33;;;;;;;;;;5114559;28;20200;-72
2022/05/23 01:49:02;;;;;;;8.52;3.63;;;;;;;;;;5100314;28;20185;-76
2022/05/23 01:51:28;;;;;;;6.78;3.50;;;;;;;;;;5106762;28;20284;-73
2022/05/23 01:53:54;;;;;;;8.80;3.60;;;;;;;;;;5104473;28;20181;-74
2022/05/23 01:56:21;;;;;;;9.35;3.50;;;;;;;;;;5112328;28;20184;-77
2022/05/23 02:01:38;;;;;;;9.98;3.75;;;;;;;;;;5108227;28;20205;-74
2022/05/23 02:04:05;;;;;;;12.57;4.03;;;;;;;;;;5109177;28;20583;-75
2022/05/23 02:06:40;;;;;;;8.95;3.72;;;;;;;;;;5125279;28;20176;-74
2022/05/23 02:09:26;;;;;;;8.07;3.72;;;;;;;;;;5108921;28;20193;-74
2022/05/23 02:12:01;;;;;;;7.30;3.47;;;;;;;;;;5098504;28;20641;-74
2022/05/23 02:14:30;;;;;;;9.07;3.58;;;;;;;;;;5111833;28;20195;-73
2022/05/23 02:16:58;;;;;;;9.18;4.00;;;;;;;;;;5102059;28;20799;-75
2022/05/23 02:19:25;;;;;;;6.47;3.67;;;;;;;;;;5114165;28;20196;-75
2022/05/23 02:22:02;;;;;;;7.50;3.65;;;;;;;;;;5115926;28;20703;-74
2022/05/23 02:24:28;;;;;;;8.35;3.63;;;;;;;;;;5122374;28;20191;-76
2022/05/23 02:26:54;;;;;;;6.78;3.58;;;;;;;;;;5112384;28;20187;-76
2022/05/23 02:29:34;;;;;;;10.70;3.47;;;;;;;;;;5114046;28;20184;-71
2022/05/23 02:32:00;;;;;;;6.78;3.38;;;;;;;;;;5110605;28;20486;-74
2022/05/23 02:34:26;;;;;;;8.68;3.70;;;;;;;;;;5116091;28;20524;-75
2022/05/23 02:36:53;;;;;;;11.98;4.05;;;;;;;;;;5116901;28;20649;-75
2022/05/23 02:39:39;;;;;;;7.43;3.70;;;;;;;;;;5115325;28;20246;-73
2022/05/23 02:42:05;;;;;;;7.50;3.50;;;;;;;;;;5110183;28;20224;-72
2022/05/23 02:44:32;;;;;;;8.70;3.33;;;;;;;;;;5105510;28;20601;-73
2022/05/23 02:47:02;;;;;;;7.30;3.40;;;;;;;;;;5105252;28;20664;-73
2022/05/23 02:49:30;;;;;;;8.75;3.90;;;;;;;;;;5121522;27;20177;-75
2022/05/23 02:51:58;;;;;;;8.60;3.60;;;;;;;;;;5116804;27;20224;-74
2022/05/23 02:54:31;;;;;;;7.40;3.45;;;;;;;;;;5100240;28;20192;-75
2022/05/23 02:57:01;;;;;;;9.90;3.90;;;;;;;;;;5105699;27;20208;-74
2022/05/23 02:59:28;;;;;;;10.82;3.67;;;;;;;;;;5126343;27;20618;-73
2022/05/23 03:04:48;;;;;;;9.85;3.70;;;;;;;;;;5123934;27;20193;-75
2022/05/23 03:07:15;;;;;;;8.63;3.70;;;;;;;;;;5119520;27;20203;-77
2022/05/23 03:09:53;;;;;;;9.18;3.60;;;;;;;;;;5114822;27;20270;-73
2022/05/23 03:12:20;;;;;;;6.97;3.88;;;;;;;;;;5112256;27;20850;-74
2022/05/23 03:14:46;;;;;;;9.70;4.07;;;;;;;;;;5115611;27;20213;-74
2022/05/23 03:17:13;;;;;;;7.88;3.95;;;;;;;;;;5117884;27;20545;-71
2022/05/23 03:19:42;;;;;;;6.78;3.70;;;;;;;;;;5123119;27;20608;-74
2022/05/23 03:27:43;;;;;;;7.78;3.70;;;;;;;;;;5116019;27;20181;-73
2022/05/23 03:30:25;;;;;;;7.60;3.72;;;;;;;;;;5110884;27;20194;-76
2022/05/23 03:32:53;;;;;;;11.15;3.92;;;;;;;;;;5115620;27;20181;-73
2022/05/23 03:35:21;;;;;;;7.90;3.95;;;;;;;;;;5132783;27;20209;-73
2022/05/23 03:37:47;;;;;;;9.82;3.90;;;;;;;;;;5118082;27;20178;-76
2022/05/23 03:40:14;;;;;;;5.57;3.20;;;;;;;;;;5115093;27;20259;-73
2022/05/23 03:42:46;;;;;;;12.40;4.30;;;;;;;;;;5112934;27;20224;-74
2022/05/23 03:45:13;;;;;;;8.88;4.05;;;;;;;;;;5118000;27;20213;-72
2022/05/23 03:47:46;;;;;;;9.25;3.58;;;;;;;;;;5101671;27;20200;-74
2022/05/23 03:50:17;;;;;;;7.25;3.50;;;;;;;;;;5115656;27;20672;-73
2022/05/23 03:52:44;;;;;;;6.45;3.33;;;;;;;;;;5110181;27;20197;-76
2022/05/23 03:55:19;;;;;;;5.82;3.83;;;;;;;;;;5097019;28;20196;-72
2022/05/23 03:57:48;;;;;;;9.45;4.15;;;;;;;;;;5114950;27;20215;-74
2022/05/23 04:00:15;;;;;;;8.00;3.90;;;;;;;;;;5116744;27;20189;-73
2022/05/23 04:02:42;;;;;;;8.48;3.50;;;;;;;;;;5112538;27;20216;-75
2022/05/23 04:05:11;;;;;;;8.48;3.67;;;;;;;;;;5127175;27;20260;-77
2022/05/23 04:07:56;;;;;;;11.52;4.05;;;;;;;;;;5115892;27;20657;-75
2022/05/23 04:10:30;;;;;;;10.57;3.80;;;;;;;;;;5113953;27;20183;-74
2022/05/23 04:12:57;;;;;;;10.60;4.07;;;;;;;;;;5119296;27;20200;-75
2022/05/23 04:15:24;;;;;;;8.02;4.07;;;;;;;;;;5115823;27;20967;-75
2022/05/23 04:17:51;;;;;;;9.32;4.30;;;;;;;;;;5109833;27;20641;-74
2022/05/23 04:20:18;;;;;;;12.23;4.03;;;;;;;;;;5109693;27;20294;-74
2022/05/23 04:22:54;;;;;;;8.45;4.07;;;;;;;;;;5110396;27;20238;-75
2022/05/23 04:25:24;;;;;;;7.35;3.95;;;;;;;;;;5120984;27;20192;-74
2022/05/23 04:27:50;;;;;;;10.85;4.00;;;;;;;;;;5116318;27;20636;-74
2022/05/23 04:30:17;;;;;;;9.60;4.30;;;;;;;;;;5114999;27;20177;-74
2022/05/23 04:35:31;;;;;;;8.07;4.13;;;;;;;;;;5110436;27;20189;-74
2022/05/23 04:38:00;;;;;;;10.25;4.30;;;;;;;;;;5114768;27;20188;-78
2022/05/23 04:40:36;;;;;;;7.35;4.28;;;;;;;;;;5121408;27;20184;-73
2022/05/23 04:43:03;;;;;;;11.98;4.50;;;;;;;;;;5110889;27;20208;-78
2022/05/23 04:45:30;;;;;;;10.27;4.75;;;;;;;;;;5113936;27;20634;-75
2022/05/23 04:51:11;;;;;;;6.45;4.15;;;;;;;;;;5110048;27;20189;-77
2022/05/23 04:53:43;;;;;;;8.52;4.60;;;;;;;;;;5092060;27;20180;-79
2022/05/23 04:56:16;;;;;;;11.77;4.68;;;;;;;;;;5106557;28;20176;-76
2022/05/23 04:58:42;;;;;;;8.50;4.35;;;;;;;;;;5115845;27;20177;-76
2022/05/23 05:01:08;;;;;;;7.80;4.18;;;;;;;;;;5115971;27;20264;-77
2022/05/23 05:03:35;;;;;;;9.35;4.35;;;;;;;;;;5126509;27;20712;-76
2022/05/23 05:06:01;;;;;;;8.90;4.55;;;;;;;;;;5094752;28;20174;-77
2022/05/23 05:08:28;;;;;;;10.30;4.57;;;;;;;;;;5121972;27;20189;-76
2022/05/23 05:11:01;;;;;;;9.43;4.75;;;;;;;;;;5093787;27;20189;-75
2022/05/23 05:13:28;;;;;;;11.73;4.80;;;;;;;;;;5100268;28;20188;-77
2022/05/23 05:16:00;;;;;;;9.48;4.80;;;;;;;;;;5096272;27;20649;-74
2022/05/23 05:18:27;;;;;;;10.77;5.60;;;;;;;;;;5102851;27;20626;-75
2022/05/23 05:21:12;;;;;;;14.93;5.45;;;;;;;;;;5101318;28;20330;-72
2022/05/23 05:23:57;;;;;;;12.70;5.30;;;;;;;;;;5109194;28;20265;-70
2022/05/23 05:26:29;;;;;;;20.17;8.93;;;;;;;;;;5104635;28;20186;-70
2022/05/23 05:28:55;;;;;;;14.55;5.78;;;;;;;;;;5114736;27;20203;-70
2022/05/23 05:31:21;;;;;;;12.20;5.70;;;;;;;;;;5119458;27;20189;-71
2022/05/23 05:33:53;;;;;;;12.80;6.50;;;;;;;;;;5110030;27;20236;-74
2022/05/23 05:36:21;;;;;;;11.20;5.93;;;;;;;;;;5105110;28;20885;-71
2022/05/23 05:38:51;;;;;;;12.75;5.60;;;;;;;;;;5108802;28;20645;-74
2022/05/23 05:41:19;;;;;;;12.05;6.07;;;;;;;;;;5105930;28;20221;-69
2022/05/23 05:43:57;;;;;;;9.35;5.70;;;;;;;;;;5118237;27;20189;-73
2022/05/23 05:46:31;;;;;;;15.07;6.35;;;;;;;;;;5103870;28;20260;-72
2022/05/23 05:49:12;;;;;;;12.65;6.07;;;;;;;;;;5111665;28;20529;-71
2022/05/23 05:51:39;;;;;;;12.32;6.20;;;;;;;;;;5107073;28;20198;-71
2022/05/23 05:54:29;;;;;;;12.82;6.18;;;;;;;;;;5096202;28;20193;-71
2022/05/23 05:57:11;;;;;;;12.43;6.43;;;;;;;;;;5113008;28;20556;-72
2022/05/23 05:59:38;;;;;;;12.10;6.35;;;;;;;;;;5109957;28;20551;-71
2022/05/23 06:02:07;;;;;;;13.32;6.57;;;;;;;;;;5109238;28;20895;-72
2022/05/23 06:04:34;;;;;;;10.27;6.68;;;;;;;;;;5104271;28;20184;-73
2022/05/23 06:12:51;;;;;;;14.93;6.85;;;;;;;;;;5111482;28;20201;-72
2022/05/23 06:15:43;;;;;;;15.15;7.38;;;;;;;;;;5101145;28;20204;-72
2022/05/23 06:18:10;;;;;;;17.27;7.70;;;;;;;;;;5107423;28;20181;-72
2022/05/23 06:20:39;;;;;;;12.07;6.53;;;;;;;;;;5107837;28;20194;-72
2022/05/23 06:23:05;;;;;;;13.15;6.63;;;;;;;;;;5105902;28;20677;-70
2022/05/23 06:25:33;;;;;;;12.98;7.20;;;;;;;;;;5110607;28;20540;-72
2022/05/23 06:28:04;;;;;;;15.77;7.30;;;;;;;;;;5108237;28;20185;-71
2022/05/23 06:30:31;;;;;;;13.63;7.20;;;;;;;;;;5110097;28;20189;-70
2022/05/23 06:33:03;;;;;;;14.57;7.72;;;;;;;;;;5109587;27;20200;-70
2022/05/23 06:35:39;;;;;;;15.98;7.78;;;;;;;;;;5125706;27;20635;-72
2022/05/23 06:38:06;;;;;;;16.80;10.65;;;;;;;;;;5110238;27;20188;-72
2022/05/23 06:40:51;;;;;;;12.32;7.25;;;;;;;;;;5105977;28;20677;-70
2022/05/23 06:43:26;;;;;;;14.70;7.38;;;;;;;;;;5114978;27;20220;-70
2022/05/23 06:46:12;;;;;;;15.05;7.82;;;;;;;;;;5109482;27;20208;-71
2022/05/23 06:48:51;;;;;;;14.88;7.90;;;;;;;;;;5126689;27;20238;-72
2022/05/23 06:51:27;;;;;;;18.83;8.10;;;;;;;;;;5109118;27;20637;-72
2022/05/23 06:53:56;;;;;;;14.52;8.07;;;;;;;;;;5111280;28;20181;-72
2022/05/23 06:56:35;;;;;;;16.13;8.10;;;;;;;;;;5106876;27;20205;-70
2022/05/23 06:59:02;;;;;;;14.77;8.57;;;;;;;;;;5110458;27;20219;-72
2022/05/23 07:01:33;;;;;;;12.88;7.93;;;;;;;;;;5107202;27;20173;-71
2022/05/23 07:04:22;;;;;;;19.50;9.05;;;;;;;;;;5109967;28;20641;-73
2022/05/23 07:12:38;;;;;;;16.92;8.52;;;;;;;;;;5109648;28;20558;-70
2022/05/23 07:15:06;;;;;;;16.48;8.93;;;;;;;;;;5110007;27;20189;-70
2022/05/23 07:17:37;;;;;;;14.68;8.48;;;;;;;;;;5103637;27;20181;-73
2022/05/23 07:20:23;;;;;;;17.40;9.13;;;;;;;;;;5108802;28;20645;-73
2022/05/23 07:23:10;;;;;;;14.60;8.90;;;;;;;;;;5120688;27;20220;-69
2022/05/23 07:25:41;;;;;;;22.50;9.45;;;;;;;;;;5106214;27;20196;-74
2022/05/23 07:28:09;;;;;;;16.30;9.15;;;;;;;;;;5106688;28;20497;-73
2022/05/23 07:30:35;;;;;;;21.58;9.55;;;;;;;;;;5125010;27;20192;-72
2022/05/23 07:33:02;;;;;;;18.90;9.30;;;;;;;;;;5107579;28;20397;-73
2022/05/23 07:35:46;;;;;;;15.75;9.43;;;;;;;;;;5110281;28;20192;-70
2022/05/23 07:38:13;;;;;;;16.52;9.98;;;;;;;;;;5107302;28;20271;-70
2022/05/23 07:40:42;;;;;;;15.85;9.70;;;;;;;;;;5112584;27;20185;-69
2022/05/23 07:43:16;;;;;;;15.40;9.18;;;;;;;;;;5106417;27;20208;-71
2022/05/23 07:45:42;;;;;;;17.35;9.45;;;;;;;;;;5107690;27;20189;-71
2022/05/23 07:48:08;;;;;;;15.93;9.93;;;;;;;;;;5109949;27;20189;-71
2022/05/23 07:50:39;;;;;;;16.77;9.55;;;;;;;;;;5108810;27;20230;-71
2022/05/23 08:01:38;;;;;;;21.27;9.98;;;;;;;;;;5104789;28;20697;-70
2022/05/23 08:04:08;;;;;;;18.30;10.40;;;;;;;;;;5108427;28;20277;-71
2022/05/23 08:06:38;;;;;;;19.08;9.68;;;;;;;;;;5107855;27;20185;-70
2022/05/23 08:09:07;;;;;;;15.60;9.63;;;;;;;;;;5103321;27;20192;-73
2022/05/23 08:11:33;;;;;;;20.40;9.75;;;;;;;;;;5106148;27;20231;-72
2022/05/23 08:14:10;;;;;;;29.95;18.88;;;;;;;;;;5106660;28;20188;-73
2022/05/23 08:16:49;;;;;;;15.73;11.30;;;;;;;;;;5109256;28;20271;-68
2022/05/23 08:19:24;;;;;;;15.52;10.02;;;;;;;;;;5092311;28;20195;-71
2022/05/23 08:21:54;;;;;;;14.70;10.50;;;;;;;;;;5106437;28;20205;-71
2022/05/23 08:24:21;;;;;;;18.80;10.05;;;;;;;;;;5114409;27;20272;-72
2022/05/23 08:26:48;;;;;;;18.02;11.07;;;;;;;;;;5111148;27;20226;-76
2022/05/23 08:29:14;;;;;;;15.85;10.82;;;;;;;;;;5103240;28;20692;-72
2022/05/23 08:31:53;;;;;;;15.60;10.50;;;;;;;;;;5111149;27;20188;-72
2022/05/23 08:34:32;;;;;;;15.57;10.70;;;;;;;;;;5108634;27;20215;-76
2022/05/23 08:36:59;;;;;;;21.85;11.13;;;;;;;;;;5100100;28;20656;-74
2022/05/23 08:39:27;;;;;;;21.77;11.73;;;;;;;;;;5108428;27;20284;-74
2022/05/23 08:42:05;;;;;;;19.63;10.45;;;;;;;;;;5107669;27;20224;-72
2022/05/23 08:45:01;;;;;;;20.13;11.05;;;;;;;;;;5109517;27;20254;-72
2022/05/23 08:47:36;;;;;;;20.20;11.60;;;;;;;;;;5125348;27;20181;-73
2022/05/23 08:50:11;;;;;;;18.30;11.15;;;;;;;;;;5095077;27;20237;-76
2022/05/23 08:52:53;;;;;;;20.48;10.93;;;;;;;;;;5098997;27;20743;-74
2022/05/23 08:55:34;;;;;;;21.45;11.00;;;;;;;;;;5106584;27;20196;-75
2022/05/23 08:58:39;;;;;;;17.33;10.35;;;;;;;;;;5120620;27;20189;-72
2022/05/23 09:01:13;;;;;;;17.00;10.68;;;;;;;;;;5106504;28;20214;-72
2022/05/23 09:03:42;;;;;;;21.42;10.68;;;;;;;;;;5106951;28;20373;-74
2022/05/23 09:06:31;;;;;;;21.75;11.50;;;;;;;;;;5107708;27;20217;-71
2022/05/23 09:09:03;;;;;;;18.52;11.13;;;;;;;;;;5107699;27;20196;-76
2022/05/23 09:11:37;;;;;;;18.60;10.75;;;;;;;;;;5106416;28;20200;-74
2022/05/23 09:14:04;;;;;;;21.25;10.98;;;;;;;;;;5110323;28;20172;-72
2022/05/23 09:16:40;;;;;;;20.95;11.70;;;;;;;;;;5107106;28;20174;-73
2022/05/23 09:19:25;;;;;;;18.85;11.57;;;;;;;;;;5102288;28;20196;-73
2022/05/23 09:24:38;;;;;;;19.20;11.52;;;;;;;;;;5108129;28;20181;-74
2022/05/23 09:27:08;;;;;;;22.52;12.57;;;;;;;;;;5111875;27;20648;-74
2022/05/23 09:29:34;;;;;;;19.15;10.82;;;;;;;;;;5113050;27;20661;-76
2022/05/23 09:32:06;;;;;;;20.55;10.90;;;;;;;;;;5124687;27;20234;-73
2022/05/23 09:34:36;;;;;;;16.30;10.95;;;;;;;;;;5107751;28;20177;-74
2022/05/23 09:37:03;;;;;;;17.30;10.75;;;;;;;;;;5109836;28;20697;-73
2022/05/23 09:39:30;;;;;;;19.42;10.70;;;;;;;;;;5109406;27;20185;-72
2022/05/23 09:47:45;;;;;;;21.15;12.35;;;;;;;;;;5117900;27;20208;-74
2022/05/23 09:50:12;;;;;;;18.33;12.55;;;;;;;;;;5114290;28;20189;-73
2022/05/23 09:52:42;;;;;;;21.23;12.63;;;;;;;;;;5109727;28;20645;-72
2022/05/23 09:55:10;;;;;;;23.13;13.05;;;;;;;;;;5116449;28;20196;-72
2022/05/23 09:57:43;;;;;;;24.70;12.30;;;;;;;;;;5102813;28;20646;-75
2022/05/23 10:00:26;;;;;;;16.17;10.20;;;;;;;;;;5103168;28;20185;-76
2022/05/23 10:03:01;;;;;;;20.88;11.88;;;;;;;;;;5114824;28;20578;-72
2022/05/23 10:05:30;;;;;;;23.23;12.02;;;;;;;;;;5114748;28;20171;-73
2022/05/23 10:07:59;;;;;;;23.30;11.68;;;;;;;;;;5106867;28;20184;-73
2022/05/23 10:10:26;;;;;;;21.60;12.27;;;;;;;;;;5121628;27;20185;-75
2022/05/23 10:13:18;;;;;;;21.58;12.50;;;;;;;;;;5105409;28;20219;-71
2022/05/23 10:15:46;;;;;;;20.63;12.13;;;;;;;;;;5116425;28;20687;-71
2022/05/23 10:18:20;;;;;;;19.83;13.10;;;;;;;;;;5108741;28;20181;-72
2022/05/23 10:20:46;;;;;;;20.85;13.35;;;;;;;;;;5106592;28;20185;-72
2022/05/23 10:23:18;;;;;;;21.98;12.68;;;;;;;;;;5108363;28;20222;-73
2022/05/23 10:25:56;;;;;;;24.85;17.20;;;;;;;;;;5106696;28;20518;-72
2022/05/23 10:28:36;;;;;;;26.83;17.90;;;;;;;;;;5105993;28;20193;-72
2022/05/23 10:31:09;;;;;;;24.30;18.13;;;;;;;;;;5102981;28;20198;-73
2022/05/23 10:33:35;;;;;;;25.23;18.15;;;;;;;;;;5108274;28;20573;-72
2022/05/23 10:36:04;;;;;;;26.15;18.30;;;;;;;;;;5109505;28;20453;-72
2022/05/23 10:44:31;;;;;;;31.48;18.92;;;;;;;;;;5102054;28;20197;-72
2022/05/23 10:47:04;;;;;;;33.85;19.50;;;;;;;;;;5108319;28;21775;-73
2022/05/23 10:49:40;;;;;;;28.25;15.75;;;;;;;;;;5107282;28;20181;-73
2022/05/23 10:52:30;;;;;;;28.02;14.73;;;;;;;;;;5110733;28;20181;-74
2022/05/23 10:55:25;;;;;;;27.02;15.45;;;;;;;;;;5100167;28;20197;-72
2022/05/23 10:58:11;;;;;;;24.50;15.48;;;;;;;;;;5088419;28;20250;-74
2022/05/23 11:00:44;;;;;;;25.73;15.40;;;;;;;;;;5105189;28;20185;-73
2022/05/23 11:03:28;;;;;;;24.00;15.35;;;;;;;;;;5115642;28;20296;-72
2022/05/23 11:06:02;;;;;;;25.30;16.52;;;;;;;;;;5105247;28;20185;-75
2022/05/23 11:08:28;;;;;;;30.02;16.17;;;;;;;;;;5115293;27;20185;-73
2022/05/23 11:10:57;;;;;;;32.05;18.15;;;;;;;;;;5115240;27;20672;-70
2022/05/23 11:13:41;;;;;;;26.20;16.42;;;;;;;;;;5109906;28;20184;-71
2022/05/23 11:16:07;;;;;;;28.52;17.02;;;;;;;;;;5091808;28;20212;-71
2022/05/23 11:18:52;;;;;;;25.65;16.85;;;;;;;;;;5113484;27;20608;-70
2022/05/23 11:21:27;;;;;;;32.72;17.45;;;;;;;;;;5114301;27;20613;-72
2022/05/23 11:24:00;;;;;;;36.35;17.10;;;;;;;;;;5111709;27;20180;-72
2022/05/23 11:26:31;;;;;;;32.17;19.77;;;;;;;;;;5109867;28;20185;-69
2022/05/23 11:34:51;;;;;;;32.10;19.05;;;;;;;;;;5109778;28;20614;-70
2022/05/23 11:39:57;;;;;;;28.83;17.83;;;;;;;;;;5110239;27;20246;-70
2022/05/23 11:42:56;;;;;;;31.52;18.15;;;;;;;;;;5109009;27;20225;-72
2022/05/23 11:48:30;;;;;;;25.85;16.13;;;;;;;;;;5107640;28;20196;-70
2022/05/23 11:50:58;;;;;;;22.33;15.10;;;;;;;;;;5109929;28;20191;-69
2022/05/23 11:53:28;;;;;;;23.38;15.45;;;;;;;;;;5109346;28;20177;-71
2022/05/23 11:55:55;;;;;;;22.55;15.48;;;;;;;;;;5108348;28;20199;-72
2022/05/23 11:58:24;;;;;;;22.92;14.45;;;;;;;;;;5105724;27;20559;-71
2022/05/23 12:01:02;;;;;;;23.13;15.20;;;;;;;;;;5110448;28;20192;-70
2022/05/23 12:03:51;;;;;;;25.13;15.02;;;;;;;;;;5108047;28;20576;-71
2022/05/23 12:06:25;;;;;;;22.48;16.10;;;;;;;;;;5106850;27;20657;-71
2022/05/23 12:09:03;;;;;;;21.98;16.08;;;;;;;;;;5111237;28;20224;-72
2022/05/23 12:11:32;;;;;;;26.80;16.13;;;;;;;;;;5109322;27;20522;-73
2022/05/23 12:14:15;;;;;;;23.50;16.10;;;;;;;;;;5109141;28;20184;-70
2022/05/23 12:17:05;;;;;;;24.85;16.10;;;;;;;;;;5107885;28;20401;-71
2022/05/23 12:19:40;;;;;;;23.52;15.85;;;;;;;;;;5108092;28;20638;-71
2022/05/23 12:22:13;;;;;;;27.83;15.73;;;;;;;;;;5121246;27;20586;-70
2022/05/23 12:24:55;;;;;;;23.27;15.40;;;;;;;;;;5110718;28;20220;-71
2022/05/23 12:27:24;;;;;;;24.85;15.27;;;;;;;;;;5106251;27;20201;-72
2022/05/23 12:30:10;;;;;;;23.92;15.85;;;;;;;;;;5109219;28;20588;-70
2022/05/23 12:32:38;;;;;;;24.58;16.35;;;;;;;;;;5107873;28;20664;-70
2022/05/23 12:35:05;;;;;;;21.20;15.88;;;;;;;;;;5105626;27;20542;-73
2022/05/23 12:37:37;;;;;;;22.95;16.63;;;;;;;;;;5122935;27;20200;-73
2022/05/23 12:40:10;;;;;;;21.63;16.95;;;;;;;;;;5110453;28;20222;-72
2022/05/23 12:42:55;;;;;;;23.35;17.08;;;;;;;;;;5100990;27;20581;-70
2022/05/23 12:45:30;;;;;;;24.02;16.52;;;;;;;;;;5108844;28;20195;-69
2022/05/23 12:48:02;;;;;;;30.90;17.08;;;;;;;;;;5109010;28;20188;-71
2022/05/23 12:50:40;;;;;;;30.85;18.05;;;;;;;;;;5109909;28;20683;-72
2022/05/23 12:53:25;;;;;;;26.80;17.23;;;;;;;;;;5108858;28;20189;-70
2022/05/23 12:55:51;;;;;;;30.05;17.33;;;;;;;;;;5107300;28;20197;-69
2022/05/23 12:58:35;;;;;;;31.25;17.25;;;;;;;;;;5104431;28;20204;-71
2022/05/23 13:01:04;;;;;;;25.33;17.05;;;;;;;;;;5112094;27;20551;-70
2022/05/23 13:03:41;;;;;;;27.20;17.08;;;;;;;;;;5109030;27;20575;-72
2022/05/23 13:06:07;;;;;;;27.77;17.83;;;;;;;;;;5108655;27;20177;-71
2022/05/23 13:08:36;;;;;;;26.35;19.00;;;;;;;;;;5108571;28;20188;-73
2022/05/23 13:11:08;;;;;;;29.92;18.20;;;;;;;;;;5105380;28;20209;-73
2022/05/23 13:13:42;;;;;;;22.30;18.05;;;;;;;;;;5107191;28;20224;-70
2022/05/23 13:16:20;;;;;;;32.83;18.13;;;;;;;;;;5106734;28;20197;-70
2022/05/23 13:24:48;;;;;;;30.23;21.48;;;;;;;;;;5105595;28;20195;-73
2022/05/23 13:27:04;;;;;;;34.45;23.92;;;;;;;;;;5105079;28;20216;-71
2022/05/23 13:29:32;;;;;;;37.55;25.50;;;;;;;;;;5106864;28;20651;-68
2022/05/23 13:32:18;;;;;;;37.00;27.52;;;;;;;;;;5108091;27;20268;-72
2022/05/23 13:34:46;;;;;;;40.88;28.85;;;;;;;;;;5106692;28;20580;-70
2022/05/23 13:37:24;;;;;;;45.88;30.90;;;;;;;;;;5117669;27;20189;-73
2022/05/23 13:39:50;;;;;;;47.97;33.28;;;;;;;;;;5118632;27;20187;-72
2022/05/23 13:42:21;;;;;;;52.80;35.42;;;;;;;;;;5123713;27;20212;-72
2022/05/23 13:44:47;;;;;;;54.15;37.10;;;;;;;;;;5121560;27;20177;-72
2022/05/23 13:47:18;;;;;;;54.67;39.03;;;;;;;;;;5106964;28;20188;-73
2022/05/23 13:49:56;;;;;;;54.78;38.65;;;;;;;;;;5110207;28;20268;-74
2022/05/23 13:52:35;;;;;;;59.22;39.90;;;;;;;;;;5106544;28;20536;-72
2022/05/23 13:55:13;;;;;;;54.85;40.00;;;;;;;;;;5124914;27;20263;-73
2022/05/23 13:57:48;;;;;;;62.97;41.47;;;;;;;;;;5115672;28;20184;-72
2022/05/23 14:00:36;;;;;;;59.88;40.78;;;;;;;;;;5115835;28;20550;-72
2022/05/23 14:03:20;;;;;;;57.50;40.10;;;;;;;;;;5110393;28;20240;-72
2022/05/23 14:05:49;;;;;;;62.72;41.38;;;;;;;;;;5114910;28;20197;-72
2022/05/23 14:08:15;;;;;;;69.10;43.85;;;;;;;;;;5122632;28;20246;-71
2022/05/23 14:10:44;;;;;;;62.42;43.17;;;;;;;;;;5109876;28;20177;-73
2022/05/23 14:13:10;;;;;;;62.22;42.85;;;;;;;;;;5107490;28;20194;-72
2022/05/23 14:15:37;;;;;;;68.45;43.65;;;;;;;;;;5106264;28;20238;-72
2022/05/23 14:18:11;;;;;;;65.68;42.80;;;;;;;;;;5107867;28;20732;-71
2022/05/23 14:20:43;;;;;;;60.97;42.53;;;;;;;;;;5114588;28;20199;-74
2022/05/23 14:23:12;;;;;;;58.70;39.92;;;;;;;;;;5110531;28;20208;-72
2022/05/23 14:25:41;;;;;;;61.70;41.83;;;;;;;;;;5112166;28;20548;-72
2022/05/23 14:28:20;;;;;;;62.65;40.45;;;;;;;;;;5107714;28;20192;-74
2022/05/23 14:30:47;;;;;;;62.05;41.20;;;;;;;;;;5121300;28;20672;-74
2022/05/23 14:33:43;;;;;;;61.92;42.28;;;;;;;;;;5111710;28;20578;-72
2022/05/23 14:36:15;;;;;;;59.03;38.88;;;;;;;;;;5094503;28;20204;-73
2022/05/23 14:38:41;;;;;;;58.70;38.58;;;;;;;;;;5107505;28;20326;-72
2022/05/23 14:41:34;;;;;;;58.38;37.15;;;;;;;;;;5112748;27;20249;-71
2022/05/23 14:44:02;;;;;;;61.17;37.47;;;;;;;;;;5126012;27;20231;-75
2022/05/23 14:46:34;;;;;;;53.70;34.85;;;;;;;;;;5112223;28;20192;-74
2022/05/23 14:49:05;;;;;;;53.83;31.48;;;;;;;;;;5111736;28;20189;-73
2022/05/23 14:51:34;;;;;;;46.95;29.52;;;;;;;;;;5101077;27;20332;-75
2022/05/23 14:56:57;;;;;;;42.35;24.58;;;;;;;;;;5107647;28;20195;-74
2022/05/23 15:02:17;;;;;;;38.88;20.67;;;;;;;;;;5115854;27;20240;-73
2022/05/23 15:04:46;;;;;;;31.70;17.85;;;;;;;;;;5122142;27;20533;-74
2022/05/23 15:07:12;;;;;;;28.42;17.85;;;;;;;;;;5112231;27;20191;-74
2022/05/23 15:09:41;;;;;;;28.25;17.50;;;;;;;;;;5117176;27;20229;-75
2022/05/23 15:12:12;;;;;;;26.73;15.23;;;;;;;;;;5128017;27;20592;-74
2022/05/23 15:14:38;;;;;;;24.40;14.25;;;;;;;;;;5108752;27;20189;-74
2022/05/23 15:17:08;;;;;;;27.52;12.80;;;;;;;;;;5114366;27;20264;-76
2022/05/23 15:19:35;;;;;;;22.52;12.88;;;;;;;;;;5113141;27;20227;-73
2022/05/23 15:22:01;;;;;;;31.92;16.42;;;;;;;;;;5116312;27;20209;-73
2022/05/23 15:24:27;;;;;;;32.20;16.10;;;;;;;;;;5116031;27;20268;-75
2022/05/23 15:26:54;;;;;;;24.08;12.55;;;;;;;;;;5117456;27;20180;-75
2022/05/23 15:29:20;;;;;;;19.48;11.05;;;;;;;;;;5114247;27;20196;-74
2022/05/23 15:31:50;;;;;;;21.08;11.57;;;;;;;;;;5117559;27;20284;-73
2022/05/23 15:34:16;;;;;;;28.10;12.68;;;;;;;;;;5119747;27;20579;-74
2022/05/23 15:36:43;;;;;;;30.02;13.43;;;;;;;;;;5112558;27;20189;-70
2022/05/23 15:39:10;;;;;;;25.98;12.57;;;;;;;;;;5110175;28;20684;-62
2022/05/23 15:41:40;;;;;;;23.63;13.27;;;;;;;;;;5109259;28;20244;-62
2022/05/23 15:44:12;;;;;;;28.23;13.10;;;;;;;;;;5111146;28;20208;-63
2022/05/23 15:46:40;;;;;;;21.20;13.02;;;;;;;;;;5114860;27;20182;-73
2022/05/23 15:49:06;;;;;;;28.55;12.45;;;;;;;;;;5111872;28;20238;-71
2022/05/23 15:51:32;;;;;;;28.20;13.85;;;;;;;;;;5088691;28;20181;-70
2022/05/23 15:53:58;;;;;;;37.38;14.10;;;;;;;;;;5113740;27;20181;-70
2022/05/23 15:56:24;;;;;;;28.02;14.38;;;;;;;;;;5111119;27;20237;-73
2022/05/23 15:58:50;;;;;;;29.15;16.70;;;;;;;;;;5110373;27;20193;-73
2022/05/23 16:01:19;;;;;;;40.58;17.58;;;;;;;;;;5108914;28;20456;-71
2022/05/23 16:03:45;;;;;;;39.50;19.73;;;;;;;;;;5110772;27;20209;-72
2022/05/23 16:06:12;;;;;;;39.53;21.27;;;;;;;;;;5113742;27;20181;-73
2022/05/23 16:08:39;;;;;;;38.75;23.50;;;;;;;;;;5109568;27;20197;-74
2022/05/23 16:11:20;;;;;;;39.50;22.90;;;;;;;;;;5120535;27;20189;-72
2022/05/23 16:13:47;;;;;;;45.35;23.85;;;;;;;;;;5119893;27;20201;-73